Terminal Aerodrome Forecast
Issued by NWS Sioux Falls, SD

Home | Current Version | Previous Version | Text Only | Print | Product List | Glossary Off
Versions: 1 2 3 4 5 6 7 8 9 10 11 12 13 14 15 16 17

000
FTUS43 KFSD 181720
TAFSUX
TAF
KSUX 181720Z 1818/1918 16011G18KT P6SM BKN150
     FM190100 12008KT P6SM BKN150
     FM190600 08006KT P6SM VCTS BKN080CB
     FM191200 07006KT P6SM OVC015
     FM191700 08009KT P6SM OVC025=

USA.gov is the U.S. government's official web portal to all federal, state and local government web resources and services.